sensor_id;sensor_type;location;lat;lon;timestamp;pressure;altitude;pressure_sealevel;temperature
64296;BMP280;51082;38.236;15.432;2023-04-24T00:00:09;101281.31;;;15.38
64296;BMP280;51082;38.236;15.432;2023-04-24T00:01:11;101281.69;;;15.35
64296;BMP280;51082;38.236;15.432;2023-04-24T00:02:16;101278.47;;;15.33
64296;BMP280;51082;38.236;15.432;2023-04-24T00:03:17;101270.00;;;15.31
64296;BMP280;51082;38.236;15.432;2023-04-24T00:04:22;101272.03;;;15.29
64296;BMP280;51082;38.236;15.432;2023-04-24T00:05:27;101266.38;;;15.32
64296;BMP280;51082;38.236;15.432;2023-04-24T00:06:29;101261.34;;;15.30
64296;BMP280;51082;38.236;15.432;2023-04-24T00:07:34;101263.56;;;15.27
64296;BMP280;51082;38.236;15.432;2023-04-24T00:08:37;101247.41;;;15.23
64296;BMP280;51082;38.236;15.432;2023-04-24T00:09:38;101258.13;;;15.22
64296;BMP280;51082;38.236;15.432;2023-04-24T00:10:41;101251.28;;;15.21
64296;BMP280;51082;38.236;15.432;2023-04-24T00:11:43;101253.69;;;15.22
64296;BMP280;51082;38.236;15.432;2023-04-24T00:12:46;101244.63;;;15.25
64296;BMP280;51082;38.236;15.432;2023-04-24T00:13:48;101241.38;;;15.23
64296;BMP280;51082;38.236;15.432;2023-04-24T00:14:50;101247.06;;;15.20
64296;BMP280;51082;38.236;15.432;2023-04-24T00:15:52;101240.19;;;15.19
64296;BMP280;51082;38.236;15.432;2023-04-24T00:16:55;101245.81;;;15.22
64296;BMP280;51082;38.236;15.432;2023-04-24T00:17:58;101246.25;;;15.19
64296;BMP280;51082;38.236;15.432;2023-04-24T00:19:02;101244.44;;;15.20
64296;BMP280;51082;38.236;15.432;2023-04-24T00:20:04;101238.56;;;15.18
64296;BMP280;51082;38.236;15.432;2023-04-24T00:21:08;101242.19;;;15.17
64296;BMP280;51082;38.236;15.432;2023-04-24T00:22:10;101243.44;;;15.14
64296;BMP280;51082;38.236;15.432;2023-04-24T00:23:14;101240.00;;;15.14
64296;BMP280;51082;38.236;15.432;2023-04-24T00:24:16;101248.47;;;15.16
64296;BMP280;51082;38.236;15.432;2023-04-24T00:25:19;101247.06;;;15.20
64296;BMP280;51082;38.236;15.432;2023-04-24T00:26:21;101245.00;;;15.22
64296;BMP280;51082;38.236;15.432;2023-04-24T00:27:24;101247.41;;;15.23
64296;BMP280;51082;38.236;15.432;2023-04-24T00:28:25;101253.50;;;15.24
64296;BMP280;51082;38.236;15.432;2023-04-24T00:29:28;101246.63;;;15.23
64296;BMP280;51082;38.236;15.432;2023-04-24T00:30:30;101246.00;;;15.27
64296;BMP280;51082;38.236;15.432;2023-04-24T00:31:33;101241.38;;;15.29
64296;BMP280;51082;38.236;15.432;2023-04-24T00:32:35;101252.25;;;15.33
64296;BMP280;51082;38.236;15.432;2023-04-24T00:33:40;101247.38;;;15.37
64296;BMP280;51082;38.236;15.432;2023-04-24T00:34:42;101251.41;;;15.39
64296;BMP280;51082;38.236;15.432;2023-04-24T00:35:45;101240.75;;;15.34
64296;BMP280;51082;38.236;15.432;2023-04-24T00:36:46;101245.38;;;15.32
64296;BMP280;51082;38.236;15.432;2023-04-24T00:37:51;101233.50;;;15.29
64296;BMP280;51082;38.236;15.432;2023-04-24T00:38:53;101236.94;;;15.30
64296;BMP280;51082;38.236;15.432;2023-04-24T00:39:56;101244.97;;;15.35
64296;BMP280;51082;38.236;15.432;2023-04-24T00:40:57;101236.50;;;15.33
64296;BMP280;51082;38.236;15.432;2023-04-24T00:42:00;101243.16;;;15.36
64296;BMP280;51082;38.236;15.432;2023-04-24T00:43:02;101241.72;;;15.40
64296;BMP280;51082;38.236;15.432;2023-04-24T00:44:06;101242.13;;;15.43
64296;BMP280;51082;38.236;15.432;2023-04-24T00:45:08;101248.97;;;15.44
64296;BMP280;51082;38.236;15.432;2023-04-24T00:46:11;101244.75;;;15.43
64296;BMP280;51082;38.236;15.432;2023-04-24T00:47:14;101243.72;;;15.44
64296;BMP280;51082;38.236;15.432;2023-04-24T00:48:17;101252.63;;;15.43
64296;BMP280;51082;38.236;15.432;2023-04-24T00:49:21;101244.97;;;15.35
64296;BMP280;51082;38.236;15.432;2023-04-24T00:50:24;101243.78;;;15.31
64296;BMP280;51082;38.236;15.432;2023-04-24T00:51:26;101244.16;;;15.28
64296;BMP280;51082;38.236;15.432;2023-04-24T00:52:29;101242.19;;;15.23
64296;BMP280;51082;38.236;15.432;2023-04-24T00:53:32;101243.00;;;15.24
64296;BMP280;51082;38.236;15.432;2023-04-24T00:54:35;101244.63;;;15.25
64296;BMP280;51082;38.236;15.432;2023-04-24T00:55:36;101239.16;;;15.26
64296;BMP280;51082;38.236;15.432;2023-04-24T00:56:40;101247.84;;;15.27
64296;BMP280;51082;38.236;15.432;2023-04-24T00:57:42;101247.84;;;15.27
64296;BMP280;51082;38.236;15.432;2023-04-24T00:58:45;101254.66;;;15.28
64296;BMP280;51082;38.236;15.432;2023-04-24T00:59:48;101251.06;;;15.29
64296;BMP280;51082;38.236;15.432;2023-04-24T01:00:51;101257.91;;;15.30
64296;BMP280;51082;38.236;15.432;2023-04-24T01:01:54;101264.34;;;15.34
64296;BMP280;51082;38.236;15.432;2023-04-24T01:02:59;101261.50;;;15.36
64296;BMP280;51082;38.236;15.432;2023-04-24T01:04:03;101262.31;;;15.36
64296;BMP280;51082;38.236;15.432;2023-04-24T01:05:11;101260.91;;;15.34
64296;BMP280;51082;38.236;15.432;2023-04-24T01:06:13;101267.19;;;15.33
64296;BMP280;51082;38.236;15.432;2023-04-24T01:07:18;101261.53;;;15.29
64296;BMP280;51082;38.236;15.432;2023-04-24T01:08:24;101256.31;;;15.29
64296;BMP280;51082;38.236;15.432;2023-04-24T01:09:27;101252.03;;;15.28
64296;BMP280;51082;38.236;15.432;2023-04-24T01:10:29;101255.69;;;15.27
64296;BMP280;51082;38.236;15.432;2023-04-24T01:11:34;101252.50;;;15.25
64296;BMP280;51082;38.236;15.432;2023-04-24T01:12:35;101252.31;;;15.20
64296;BMP280;51082;38.236;15.432;2023-04-24T01:13:39;101252.69;;;15.17
64296;BMP280;51082;38.236;15.432;2023-04-24T01:14:42;101247.25;;;15.18
64296;BMP280;51082;38.236;15.432;2023-04-24T01:15:45;101249.06;;;15.18
64296;BMP280;51082;38.236;15.432;2023-04-24T01:16:47;101245.84;;;15.16
64296;BMP280;51082;38.236;15.432;2023-04-24T01:17:50;101240.00;;;15.14
64296;BMP280;51082;38.236;15.432;2023-04-24T01:18:52;101242.81;;;15.19
64296;BMP280;51082;38.236;15.432;2023-04-24T01:19:54;101239.00;;;15.15
64296;BMP280;51082;38.236;15.432;2023-04-24T01:20:59;101239.00;;;15.15
64296;BMP280;51082;38.236;15.432;2023-04-24T01:22:10;101241.00;;;15.13
64296;BMP280;51082;38.236;15.432;2023-04-24T01:23:12;101234.34;;;15.10
64296;BMP280;51082;38.236;15.432;2023-04-24T01:24:16;101230.56;;;15.06
64296;BMP280;51082;38.236;15.432;2023-04-24T01:25:19;101234.38;;;15.04
64296;BMP280;51082;38.236;15.432;2023-04-24T01:26:23;101238.41;;;14.99
64296;BMP280;51082;38.236;15.432;2023-04-24T01:27:26;101240.81;;;15.01
64296;BMP280;51082;38.236;15.432;2023-04-24T01:28:29;101238.66;;;14.98
64296;BMP280;51082;38.236;15.432;2023-04-24T01:29:31;101241.03;;;14.99
64296;BMP280;51082;38.236;15.432;2023-04-24T01:30:34;101234.59;;;15.02
64296;BMP280;51082;38.236;15.432;2023-04-24T01:31:36;101238.59;;;15.05
64296;BMP280;51082;38.236;15.432;2023-04-24T01:32:40;101241.22;;;15.11
64296;BMP280;51082;38.236;15.432;2023-04-24T01:33:45;101239.41;;;15.12
64296;BMP280;51082;38.236;15.432;2023-04-24T01:34:48;101240.19;;;15.06
64296;BMP280;51082;38.236;15.432;2023-04-24T01:35:51;101233.78;;;15.02
64296;BMP280;51082;38.236;15.432;2023-04-24T01:36:53;101231.56;;;14.98
64296;BMP280;51082;38.236;15.432;2023-04-24T01:37:58;101235.41;;;14.96
64296;BMP280;51082;38.236;15.432;2023-04-24T01:39:00;101237.66;;;14.92
64296;BMP280;51082;38.236;15.432;2023-04-24T01:40:04;101235.81;;;14.93
64296;BMP280;51082;38.236;15.432;2023-04-24T01:41:06;101239.66;;;14.90
64296;BMP280;51082;38.236;15.432;2023-04-24T01:42:09;101234.41;;;14.90
64296;BMP280;51082;38.236;15.432;2023-04-24T01:43:11;101233.81;;;14.88
64296;BMP280;51082;38.236;15.432;2023-04-24T01:44:14;101234.22;;;14.85
64296;BMP280;51082;38.236;15.432;2023-04-24T01:45:17;101225.72;;;14.83
64296;BMP280;51082;38.236;15.432;2023-04-24T01:46:20;101224.94;;;14.83
64296;BMP280;51082;38.236;15.432;2023-04-24T01:47:21;101220.94;;;14.80
64296;BMP280;51082;38.236;15.432;2023-04-24T01:48:24;101221.94;;;14.79
64296;BMP280;51082;38.236;15.432;2023-04-24T01:49:26;101227.38;;;14.78
64296;BMP280;51082;38.236;15.432;2023-04-24T01:50:29;101220.50;;;14.77
64296;BMP280;51082;38.236;15.432;2023-04-24T01:51:31;101217.69;;;14.78
64296;BMP280;51082;38.236;15.432;2023-04-24T01:52:34;101219.72;;;14.76
64296;BMP280;51082;38.236;15.432;2023-04-24T01:53:38;101219.31;;;14.79
64296;BMP280;51082;38.236;15.432;2023-04-24T01:54:41;101226.19;;;14.80
64296;BMP280;51082;38.236;15.432;2023-04-24T01:55:43;101226.75;;;14.82
64296;BMP280;51082;38.236;15.432;2023-04-24T01:56:46;101228.56;;;14.82
64296;BMP280;51082;38.236;15.432;2023-04-24T01:57:47;101230.63;;;14.80
64296;BMP280;51082;38.236;15.432;2023-04-24T01:58:52;101233.00;;;14.81
64296;BMP280;51082;38.236;15.432;2023-04-24T01:59:55;101235.41;;;14.83
64296;BMP280;51082;38.236;15.432;2023-04-24T02:00:58;101230.59;;;14.86
64296;BMP280;51082;38.236;15.432;2023-04-24T02:02:00;101226.56;;;14.84
64296;BMP280;51082;38.236;15.432;2023-04-24T02:03:03;101228.97;;;14.79
64296;BMP280;51082;38.236;15.432;2023-04-24T02:04:05;101226.34;;;14.79
64296;BMP280;51082;38.236;15.432;2023-04-24T02:05:08;101229.38;;;14.76
64296;BMP280;51082;38.236;15.432;2023-04-24T02:06:11;101221.72;;;14.74
64296;BMP280;51082;38.236;15.432;2023-04-24T02:07:13;101221.34;;;14.71
64296;BMP280;51082;38.236;15.432;2023-04-24T02:08:15;101220.53;;;14.70
64296;BMP280;51082;38.236;15.432;2023-04-24T02:09:19;101211.28;;;14.67
64296;BMP280;51082;38.236;15.432;2023-04-24T02:10:21;101216.28;;;14.69
64296;BMP280;51082;38.236;15.432;2023-04-24T02:11:24;101224.56;;;14.66
64296;BMP280;51082;38.236;15.432;2023-04-24T02:12:26;101216.91;;;14.71
64296;BMP280;51082;38.236;15.432;2023-04-24T02:13:28;101220.53;;;14.70
64296;BMP280;51082;38.236;15.432;2023-04-24T02:14:30;101217.91;;;14.77
64296;BMP280;51082;38.236;15.432;2023-04-24T02:15:34;101222.13;;;14.78
64296;BMP280;51082;38.236;15.432;2023-04-24T02:16:37;101218.09;;;14.82
64296;BMP280;51082;38.236;15.432;2023-04-24T02:17:39;101217.28;;;14.81
64296;BMP280;51082;38.236;15.432;2023-04-24T02:18:41;101222.94;;;14.78
64296;BMP280;51082;38.236;15.432;2023-04-24T02:19:44;101215.28;;;14.77
64296;BMP280;51082;38.236;15.432;2023-04-24T02:20:46;101225.34;;;14.73
64296;BMP280;51082;38.236;15.432;2023-04-24T02:21:48;101226.97;;;14.74
64296;BMP280;51082;38.236;15.432;2023-04-24T02:22:50;101223.13;;;14.77
64296;BMP280;51082;38.236;15.432;2023-04-24T02:23:53;101214.88;;;14.73
64296;BMP280;51082;38.236;15.432;2023-04-24T02:24:56;101220.13;;;14.73
64296;BMP280;51082;38.236;15.432;2023-04-24T02:26:00;101220.53;;;14.70
64296;BMP280;51082;38.236;15.432;2023-04-24T02:27:02;101211.28;;;14.67
64296;BMP280;51082;38.236;15.432;2023-04-24T02:28:05;101213.09;;;14.67
64296;BMP280;51082;38.236;15.432;2023-04-24T02:29:06;101216.09;;;14.71
64296;BMP280;51082;38.236;15.432;2023-04-24T02:30:10;101220.13;;;14.73
64296;BMP280;51082;38.236;15.432;2023-04-24T02:31:12;101212.47;;;14.72
64296;BMP280;51082;38.236;15.432;2023-04-24T02:32:15;101204.41;;;14.66
64296;BMP280;51082;38.236;15.432;2023-04-24T02:33:17;101209.22;;;14.69
64296;BMP280;51082;38.236;15.432;2023-04-24T02:34:19;101216.91;;;14.71
64296;BMP280;51082;38.236;15.432;2023-04-24T02:35:21;101215.28;;;14.70
64296;BMP280;51082;38.236;15.432;2023-04-24T02:36:24;101221.75;;;14.67
64296;BMP280;51082;38.236;15.432;2023-04-24T02:37:26;101211.66;;;14.71
64296;BMP280;51082;38.236;15.432;2023-04-24T02:38:29;101206.84;;;14.68
64296;BMP280;51082;38.236;15.432;2023-04-24T02:39:30;101212.47;;;14.65
64296;BMP280;51082;38.236;15.432;2023-04-24T02:40:34;101205.44;;;14.65
64296;BMP280;51082;38.236;15.432;2023-04-24T02:41:36;101207.22;;;14.65
64296;BMP280;51082;38.236;15.432;2023-04-24T02:42:39;101207.22;;;14.65
64296;BMP280;51082;38.236;15.432;2023-04-24T02:43:40;101216.09;;;14.64
64296;BMP280;51082;38.236;15.432;2023-04-24T02:44:43;101210.84;;;14.64
64296;BMP280;51082;38.236;15.432;2023-04-24T02:45:45;101207.84;;;14.67
64296;BMP280;51082;38.236;15.432;2023-04-24T02:46:48;101198.72;;;14.69
64296;BMP280;51082;38.236;15.432;2023-04-24T02:47:50;101202.19;;;14.70
64296;BMP280;51082;38.236;15.432;2023-04-24T02:48:53;101199.56;;;14.70
64296;BMP280;51082;38.236;15.432;2023-04-24T02:49:54;101201.59;;;14.68
64296;BMP280;51082;38.236;15.432;2023-04-24T02:50:57;101202.59;;;14.67
64296;BMP280;51082;38.236;15.432;2023-04-24T02:51:59;101208.22;;;14.64
64296;BMP280;51082;38.236;15.432;2023-04-24T02:53:02;101201.00;;;14.66
64296;BMP280;51082;38.236;15.432;2023-04-24T02:54:03;101197.75;;;14.64
64296;BMP280;51082;38.236;15.432;2023-04-24T02:55:07;101203.22;;;14.62
64296;BMP280;51082;38.236;15.432;2023-04-24T02:56:10;101199.16;;;14.60
64296;BMP280;51082;38.236;15.432;2023-04-24T02:57:14;101194.13;;;14.58
64296;BMP280;51082;38.236;15.432;2023-04-24T02:58:16;101189.13;;;14.57
64296;BMP280;51082;38.236;15.432;2023-04-24T02:59:21;101191.50;;;14.58
64296;BMP280;51082;38.236;15.432;2023-04-24T03:00:22;101183.88;;;14.57
64296;BMP280;51082;38.236;15.432;2023-04-24T03:01:25;101187.06;;;14.59
64296;BMP280;51082;38.236;15.432;2023-04-24T03:02:27;101183.44;;;14.60
64296;BMP280;51082;38.236;15.432;2023-04-24T03:03:30;101184.88;;;14.56
64296;BMP280;51082;38.236;15.432;2023-04-24T03:04:32;101189.13;;;14.50
64296;BMP280;51082;38.236;15.432;2023-04-24T03:05:35;101183.63;;;14.52
64296;BMP280;51082;38.236;15.432;2023-04-24T03:06:36;101184.88;;;14.49
64296;BMP280;51082;38.236;15.432;2023-04-24T03:07:39;101182.66;;;14.46
64296;BMP280;51082;38.236;15.432;2023-04-24T03:08:41;101185.09;;;14.48
64296;BMP280;51082;38.236;15.432;2023-04-24T03:09:44;101184.69;;;14.44
64296;BMP280;51082;38.236;15.432;2023-04-24T03:10:45;101180.25;;;14.45
64296;BMP280;51082;38.236;15.432;2023-04-24T03:11:50;101179.22;;;14.46
64296;BMP280;51082;38.236;15.432;2023-04-24T03:12:52;101181.28;;;14.44
64296;BMP280;51082;38.236;15.432;2023-04-24T03:13:55;101181.84;;;14.46
64296;BMP280;51082;38.236;15.432;2023-04-24T03:14:57;101177.03;;;14.43
64296;BMP280;51082;38.236;15.432;2023-04-24T03:16:00;101174.63;;;14.48
64296;BMP280;51082;38.236;15.432;2023-04-24T03:17:02;101178.22;;;14.47
64296;BMP280;51082;38.236;15.432;2023-04-24T03:18:05;101174.41;;;14.43
64296;BMP280;51082;38.236;15.432;2023-04-24T03:19:07;101179.84;;;14.41
64296;BMP280;51082;38.236;15.432;2023-04-24T03:20:10;101169.16;;;14.43
64296;BMP280;51082;38.236;15.432;2023-04-24T03:21:12;101171.78;;;14.43
64296;BMP280;51082;38.236;15.432;2023-04-24T03:22:14;101173.41;;;14.44
64296;BMP280;51082;38.236;15.432;2023-04-24T03:23:16;101170.16;;;14.42
64296;BMP280;51082;38.236;15.432;2023-04-24T03:24:19;101172.19;;;14.39
64296;BMP280;51082;38.236;15.432;2023-04-24T03:25:21;101167.38;;;14.36
64296;BMP280;51082;38.236;15.432;2023-04-24T03:26:25;101172.00;;;14.34
64296;BMP280;51082;38.236;15.432;2023-04-24T03:27:28;101163.75;;;14.31
64296;BMP280;51082;38.236;15.432;2023-04-24T03:28:31;101173.22;;;14.25
64296;BMP280;51082;38.236;15.432;2023-04-24T03:29:33;101165.56;;;14.30
64296;BMP280;51082;38.236;15.432;2023-04-24T03:30:35;101168.78;;;14.32
64296;BMP280;51082;38.236;15.432;2023-04-24T03:31:37;101164.94;;;14.35
64296;BMP280;51082;38.236;15.432;2023-04-24T03:32:40;101171.41;;;14.32
64296;BMP280;51082;38.236;15.432;2023-04-24T03:33:41;101164.56;;;14.31
64296;BMP280;51082;38.236;15.432;2023-04-24T03:34:44;101174.41;;;14.29
64296;BMP280;51082;38.236;15.432;2023-04-24T03:35:46;101168.78;;;14.26
64296;BMP280;51082;38.236;15.432;2023-04-24T03:36:49;101168.16;;;14.24
64296;BMP280;51082;38.236;15.432;2023-04-24T03:37:52;101163.72;;;14.24
64296;BMP280;51082;38.236;15.432;2023-04-24T03:38:53;101172.22;;;14.26
64296;BMP280;51082;38.236;15.432;2023-04-24T03:39:56;101172.22;;;14.26
64296;BMP280;51082;38.236;15.432;2023-04-24T03:40:58;101178.47;;;14.25
64296;BMP280;51082;38.236;15.432;2023-04-24T03:42:00;101178.63;;;14.24
64296;BMP280;51082;38.236;15.432;2023-04-24T03:43:04;101176.22;;;14.22
64296;BMP280;51082;38.236;15.432;2023-04-24T03:44:06;101177.81;;;14.23
64296;BMP280;51082;38.236;15.432;2023-04-24T03:45:09;101168.38;;;14.22
64296;BMP280;51082;38.236;15.432;2023-04-24T03:46:12;101164.13;;;14.21
64296;BMP280;51082;38.236;15.432;2023-04-24T03:47:14;101168.16;;;14.17
64296;BMP280;51082;38.236;15.432;2023-04-24T03:48:17;101170.59;;;14.12
64296;BMP280;51082;38.236;15.432;2023-04-24T03:49:19;101166.16;;;14.13
64296;BMP280;51082;38.236;15.432;2023-04-24T03:50:21;101171.78;;;14.16
64296;BMP280;51082;38.236;15.432;2023-04-24T03:51:23;101163.75;;;14.18
64296;BMP280;51082;38.236;15.432;2023-04-24T03:52:26;101157.88;;;14.16
64296;BMP280;51082;38.236;15.432;2023-04-24T03:53:28;101165.16;;;14.14
64296;BMP280;51082;38.236;15.432;2023-04-24T03:54:30;101158.09;;;14.14
64296;BMP280;51082;38.236;15.432;2023-04-24T03:55:32;101158.47;;;14.11
64296;BMP280;51082;38.236;15.432;2023-04-24T03:56:35;101160.91;;;14.06
64296;BMP280;51082;38.236;15.432;2023-04-24T03:57:37;101171.41;;;14.13
64296;BMP280;51082;38.236;15.432;2023-04-24T03:58:42;101165.53;;;14.11
64296;BMP280;51082;38.236;15.432;2023-04-24T03:59:44;101168.78;;;14.13
64296;BMP280;51082;38.236;15.432;2023-04-24T04:00:47;101172.56;;;14.10
64296;BMP280;51082;38.236;15.432;2023-04-24T04:01:49;101168.97;;;14.11
64296;BMP280;51082;38.236;15.432;2023-04-24T04:02:51;101171.38;;;14.06
64296;BMP280;51082;38.236;15.432;2023-04-24T04:03:53;101168.34;;;14.09
64296;BMP280;51082;38.236;15.432;2023-04-24T04:04:56;101167.75;;;14.07
64296;BMP280;51082;38.236;15.432;2023-04-24T04:05:58;101171.19;;;14.07
64296;BMP280;51082;38.236;15.432;2023-04-24T04:07:00;101164.53;;;14.05
64296;BMP280;51082;38.236;15.432;2023-04-24T04:08:03;101166.53;;;14.03
64296;BMP280;51082;38.236;15.432;2023-04-24T04:09:06;101172.00;;;14.01
64296;BMP280;51082;38.236;15.432;2023-04-24T04:10:09;101171.19;;;14.01
64296;BMP280;51082;38.236;15.432;2023-04-24T04:11:13;101160.72;;;14.01
64296;BMP280;51082;38.236;15.432;2023-04-24T04:12:14;101178.81;;;14.02
64296;BMP280;51082;38.236;15.432;2023-04-24T04:13:17;101169.56;;;14.00
64296;BMP280;51082;38.236;15.432;2023-04-24T04:14:20;101164.13;;;13.95
64296;BMP280;51082;38.236;15.432;2023-04-24T04:15:23;101170.19;;;13.95
64296;BMP280;51082;38.236;15.432;2023-04-24T04:16:25;101165.16;;;13.94
64296;BMP280;51082;38.236;15.432;2023-04-24T04:17:27;101167.56;;;13.95
64296;BMP280;51082;38.236;15.432;2023-04-24T04:18:29;101166.13;;;13.93
64296;BMP280;51082;38.236;15.432;2023-04-24T04:19:32;101158.91;;;13.95
64296;BMP280;51082;38.236;15.432;2023-04-24T04:20:34;101161.69;;;13.93
64296;BMP280;51082;38.236;15.432;2023-04-24T04:21:37;101156.28;;;13.95
64296;BMP280;51082;38.236;15.432;2023-04-24T04:22:39;101152.06;;;13.94
64296;BMP280;51082;38.236;15.432;2023-04-24T04:23:42;101151.63;;;13.97
64296;BMP280;51082;38.236;15.432;2023-04-24T04:24:43;101158.47;;;13.98
64296;BMP280;51082;38.236;15.432;2023-04-24T04:25:47;101152.44;;;13.97
64296;BMP280;51082;38.236;15.432;2023-04-24T04:26:48;101154.06;;;13.98
64296;BMP280;51082;38.236;15.432;2023-04-24T04:27:52;101156.47;;;13.93
64296;BMP280;51082;38.236;15.432;2023-04-24T04:28:54;101162.91;;;13.91
64296;BMP280;51082;38.236;15.432;2023-04-24T04:29:59;101158.47;;;13.91
64296;BMP280;51082;38.236;15.432;2023-04-24T04:31:02;101157.28;;;13.94
64296;BMP280;51082;38.236;15.432;2023-04-24T04:32:05;101155.28;;;13.96
64296;BMP280;51082;38.236;15.432;2023-04-24T04:33:07;101154.25;;;13.97
64296;BMP280;51082;38.236;15.432;2023-04-24T04:34:11;101153.47;;;13.96
64296;BMP280;51082;38.236;15.432;2023-04-24T04:35:13;101151.44;;;13.98
64296;BMP280;51082;38.236;15.432;2023-04-24T04:36:16;101160.50;;;13.96
64296;BMP280;51082;38.236;15.432;2023-04-24T04:37:18;101158.91;;;13.95
64296;BMP280;51082;38.236;15.432;2023-04-24T04:38:21;101151.84;;;13.95
64296;BMP280;51082;38.236;15.432;2023-04-24T04:39:23;101146.38;;;13.97
64296;BMP280;51082;38.236;15.432;2023-04-24T04:40:26;101144.41;;;14.05
64296;BMP280;51082;38.236;15.432;2023-04-24T04:41:28;101144.41;;;14.12
64296;BMP280;51082;38.236;15.432;2023-04-24T04:42:31;101142.41;;;14.14
64296;BMP280;51082;38.236;15.432;2023-04-24T04:43:34;101143.97;;;14.15
64296;BMP280;51082;38.236;15.432;2023-04-24T04:44:37;101139.78;;;14.14
64296;BMP280;51082;38.236;15.432;2023-04-24T04:45:41;101148.84;;;14.18
64296;BMP280;51082;38.236;15.432;2023-04-24T04:46:44;101145.22;;;14.19
64296;BMP280;51082;38.236;15.432;2023-04-24T04:47:46;101148.84;;;14.18
64296;BMP280;51082;38.236;15.432;2023-04-24T04:48:48;101141.59;;;14.20
64296;BMP280;51082;38.236;15.432;2023-04-24T04:49:50;101142.19;;;14.22
64296;BMP280;51082;38.236;15.432;2023-04-24T04:50:54;101145.59;;;14.23
64296;BMP280;51082;38.236;15.432;2023-04-24T04:51:55;101146.41;;;14.23
64296;BMP280;51082;38.236;15.432;2023-04-24T04:52:58;101136.38;;;14.27
64296;BMP280;51082;38.236;15.432;2023-04-24T04:54:00;101137.75;;;14.29
64296;BMP280;51082;38.236;15.432;2023-04-24T04:55:03;101141.19;;;14.30
64296;BMP280;51082;38.236;15.432;2023-04-24T04:56:05;101144.78;;;14.29
64296;BMP280;51082;38.236;15.432;2023-04-24T04:57:09;101143.97;;;14.28
64296;BMP280;51082;38.236;15.432;2023-04-24T04:58:11;101139.56;;;14.29
64296;BMP280;51082;38.236;15.432;2023-04-24T04:59:14;101147.63;;;14.34
64296;BMP280;51082;38.236;15.432;2023-04-24T05:00:16;101139.78;;;14.34
64296;BMP280;51082;38.236;15.432;2023-04-24T05:01:20;101142.97;;;14.36
64296;BMP280;51082;38.236;15.432;2023-04-24T05:02:24;101153.28;;;14.44
64296;BMP280;51082;38.236;15.432;2023-04-24T05:03:26;101150.63;;;14.51
64296;BMP280;51082;38.236;15.432;2023-04-24T05:04:28;101153.25;;;14.51
64296;BMP280;51082;38.236;15.432;2023-04-24T05:05:31;101154.81;;;14.52
64296;BMP280;51082;38.236;15.432;2023-04-24T05:06:33;101156.88;;;14.50
64296;BMP280;51082;38.236;15.432;2023-04-24T05:07:36;101147.59;;;14.54
64296;BMP280;51082;38.236;15.432;2023-04-24T05:08:38;101149.22;;;14.55
64296;BMP280;51082;38.236;15.432;2023-04-24T05:09:41;101154.44;;;14.55
64296;BMP280;51082;38.236;15.432;2023-04-24T05:10:43;101153.63;;;14.54
64296;BMP280;51082;38.236;15.432;2023-04-24T05:11:45;101145.78;;;14.54
64296;BMP280;51082;38.236;15.432;2023-04-24T05:12:47;101147.59;;;14.54
64296;BMP280;51082;38.236;15.432;2023-04-24T05:13:50;101146.19;;;14.58
64296;BMP280;51082;38.236;15.432;2023-04-24T05:14:52;101143.16;;;14.61
64296;BMP280;51082;38.236;15.432;2023-04-24T05:15:55;101148.41;;;14.61
64296;BMP280;51082;38.236;15.432;2023-04-24T05:16:58;101155.25;;;14.62
64296;BMP280;51082;38.236;15.432;2023-04-24T05:18:01;101143.16;;;14.67
64296;BMP280;51082;38.236;15.432;2023-04-24T05:19:03;101156.22;;;14.74
64296;BMP280;51082;38.236;15.432;2023-04-24T05:20:07;101156.81;;;14.76
64296;BMP280;51082;38.236;15.432;2023-04-24T05:21:09;101153.38;;;14.82
64296;BMP280;51082;38.236;15.432;2023-04-24T05:22:12;101148.94;;;14.83
64296;BMP280;51082;38.236;15.432;2023-04-24T05:23:14;101150.13;;;14.93
64296;BMP280;51082;38.236;15.432;2023-04-24T05:24:16;101155.94;;;14.95
64296;BMP280;51082;38.236;15.432;2023-04-24T05:25:18;101156.94;;;15.01
64296;BMP280;51082;38.236;15.432;2023-04-24T05:26:21;101155.16;;;15.02
64296;BMP280;51082;38.236;15.432;2023-04-24T05:27:24;101161.56;;;15.06
64296;BMP280;51082;38.236;15.432;2023-04-24T05:28:27;101156.72;;;15.09
64296;BMP280;51082;38.236;15.432;2023-04-24T05:29:29;101161.16;;;15.15
64296;BMP280;51082;38.236;15.432;2023-04-24T05:30:33;101155.47;;;15.18
64296;BMP280;51082;38.236;15.432;2023-04-24T05:31:35;101156.66;;;15.22
64296;BMP280;51082;38.236;15.432;2023-04-24T05:32:39;101157.44;;;15.23
64296;BMP280;51082;38.236;15.432;2023-04-24T05:33:42;101163.91;;;15.27
64296;BMP280;51082;38.236;15.432;2023-04-24T05:34:43;101161.50;;;15.25
64296;BMP280;51082;38.236;15.432;2023-04-24T05:35:46;101155.00;;;15.28
64296;BMP280;51082;38.236;15.432;2023-04-24T05:36:48;101160.66;;;15.32
64296;BMP280;51082;38.236;15.432;2023-04-24T05:37:51;101166.44;;;15.40
64296;BMP280;51082;38.236;15.432;2023-04-24T05:38:53;101165.41;;;15.48
64296;BMP280;51082;38.236;15.432;2023-04-24T05:39:56;101154.72;;;15.49
64296;BMP280;51082;38.236;15.432;2023-04-24T05:40:58;101162.53;;;15.56
64296;BMP280;51082;38.236;15.432;2023-04-24T05:42:01;101162.09;;;15.59
64296;BMP280;51082;38.236;15.432;2023-04-24T05:43:03;101158.50;;;15.60
64296;BMP280;51082;38.236;15.432;2023-04-24T05:44:05;101157.22;;;15.63
64296;BMP280;51082;38.236;15.432;2023-04-24T05:45:08;101157.84;;;15.65
64296;BMP280;51082;38.236;15.432;2023-04-24T05:46:15;101157.66;;;15.66
64296;BMP280;51082;38.236;15.432;2023-04-24T05:47:17;101163.66;;;15.73
64296;BMP280;51082;38.236;15.432;2023-04-24T05:48:21;101158.97;;;15.75
64296;BMP280;51082;38.236;15.432;2023-04-24T05:49:24;101158.34;;;15.80
64296;BMP280;51082;38.236;15.432;2023-04-24T05:50:26;101144.81;;;15.83